Time;durP1;ratioP1;P1;durP2;ratioP2;P2;SDS_P1;SDS_P2;PMS_P1;PMS_P2;Temp;Humidity;BMP_temperature;BMP_pressure;BME280_temperature;BME280_humidity;BME280_pressure;Samples;Min_cycle;Max_cycle;Signal;HPM_P1;HPM_P2
2021/07/03 00:00:40;;;;;;;6.43;5.83;;;;;;;;;;5060741;28;20311;-81
2021/07/03 00:03:06;;;;;;;7.07;6.40;;;;;;;;;;5071601;28;20279;-81
2021/07/03 00:05:32;;;;;;;7.87;7.07;;;;;;;;;;5072242;28;20195;-82
2021/07/03 00:07:58;;;;;;;7.60;6.73;;;;;;;;;;5073062;28;20232;-81
2021/07/03 00:10:24;;;;;;;8.00;6.60;;;;;;;;;;5072795;28;20172;-82
2021/07/03 00:12:50;;;;;;;7.77;7.07;;;;;;;;;;5073421;28;20180;-82
2021/07/03 00:15:21;;;;;;;7.10;6.40;;;;;;;;;;5072460;28;20176;-82
2021/07/03 00:17:51;;;;;;;7.93;6.73;;;;;;;;;;5072541;28;20192;-81
2021/07/03 00:20:17;;;;;;;7.93;7.20;;;;;;;;;;5072124;28;20661;-81
2021/07/03 00:22:43;;;;;;;7.23;6.27;;;;;;;;;;5072615;28;20179;-81
2021/07/03 00:25:09;;;;;;;7.67;6.93;;;;;;;;;;5072301;28;20645;-81
2021/07/03 00:27:36;;;;;;;7.47;6.67;;;;;;;;;;5072535;28;20546;-81
2021/07/03 00:30:02;;;;;;;7.80;7.10;;;;;;;;;;5072427;28;20249;-81
2021/07/03 00:32:28;;;;;;;7.90;6.87;;;;;;;;;;5073657;28;20683;-81
2021/07/03 00:34:55;;;;;;;7.40;6.70;;;;;;;;;;5071983;28;20192;-81
2021/07/03 00:37:21;;;;;;;7.37;6.67;;;;;;;;;;5073536;28;20242;-81
2021/07/03 00:39:47;;;;;;;7.40;6.70;;;;;;;;;;5073804;28;20173;-81
2021/07/03 00:42:13;;;;;;;6.83;6.23;;;;;;;;;;5072084;28;20212;-81
2021/07/03 00:44:39;;;;;;;6.80;6.20;;;;;;;;;;5072100;28;20176;-81
2021/07/03 00:47:06;;;;;;;7.43;6.73;;;;;;;;;;5072201;28;20177;-81
2021/07/03 00:49:33;;;;;;;7.10;6.40;;;;;;;;;;5073171;28;20613;-81
2021/07/03 00:51:59;;;;;;;8.23;6.80;;;;;;;;;;5073445;28;20180;-81
2021/07/03 00:54:26;;;;;;;7.10;6.40;;;;;;;;;;5071817;28;20188;-81
2021/07/03 00:57:01;;;;;;;7.70;7.00;;;;;;;;;;5073376;28;20206;-81
2021/07/03 00:59:29;;;;;;;9.07;7.20;;;;;;;;;;5071861;28;20554;-81
2021/07/03 01:01:55;;;;;;;7.73;7.03;;;;;;;;;;5071782;28;20200;-81
2021/07/03 01:04:21;;;;;;;7.43;6.73;;;;;;;;;;5071326;28;20169;-81
2021/07/03 01:06:47;;;;;;;8.70;6.97;;;;;;;;;;5071246;28;20533;-81
2021/07/03 01:09:13;;;;;;;7.57;6.87;;;;;;;;;;5071906;28;20172;-81
2021/07/03 01:11:39;;;;;;;7.30;6.33;;;;;;;;;;5071941;28;20303;-81
2021/07/03 01:14:06;;;;;;;7.27;6.57;;;;;;;;;;5071511;28;20184;-80
2021/07/03 01:16:33;;;;;;;6.50;5.90;;;;;;;;;;5071381;28;20180;-81
2021/07/03 01:18:59;;;;;;;7.60;6.90;;;;;;;;;;5072544;28;20255;-81
2021/07/03 01:21:25;;;;;;;6.80;6.20;;;;;;;;;;5068648;28;20239;-81
2021/07/03 01:23:51;;;;;;;8.23;7.17;;;;;;;;;;5072206;28;20177;-81
2021/07/03 01:26:17;;;;;;;7.10;6.40;;;;;;;;;;5071367;28;20225;-81
2021/07/03 01:28:43;;;;;;;7.20;6.50;;;;;;;;;;5072887;28;20173;-81
2021/07/03 01:31:10;;;;;;;7.90;7.07;;;;;;;;;;5072591;28;20177;-81
2021/07/03 01:33:36;;;;;;;7.70;7.00;;;;;;;;;;5072297;28;20271;-81
2021/07/03 01:36:03;;;;;;;6.80;5.83;;;;;;;;;;5072504;28;20219;-81
2021/07/03 01:38:29;;;;;;;6.93;6.33;;;;;;;;;;5071265;28;20749;-81
2021/07/03 01:40:55;;;;;;;7.20;6.47;;;;;;;;;;5072461;28;20599;-82
2021/07/03 01:43:22;;;;;;;8.83;6.63;;;;;;;;;;5070241;28;20169;-82
2021/07/03 01:45:49;;;;;;;6.57;5.90;;;;;;;;;;5068965;28;20195;-81
2021/07/03 01:48:22;;;;;;;7.00;6.30;;;;;;;;;;5072050;28;20529;-81
2021/07/03 01:50:48;;;;;;;7.50;6.80;;;;;;;;;;5070409;28;20183;-81
2021/07/03 01:53:14;;;;;;;7.80;7.10;;;;;;;;;;5072299;28;20193;-81
2021/07/03 01:55:40;;;;;;;7.27;6.57;;;;;;;;;;5071822;28;20203;-81
2021/07/03 01:58:06;;;;;;;7.13;6.50;;;;;;;;;;5071964;28;20184;-81
2021/07/03 02:00:32;;;;;;;8.20;6.23;;;;;;;;;;5071967;28;20554;-81
2021/07/03 02:02:58;;;;;;;7.20;6.50;;;;;;;;;;5070214;28;20267;-81
2021/07/03 02:05:24;;;;;;;7.30;6.57;;;;;;;;;;5069882;28;20169;-81
2021/07/03 02:07:50;;;;;;;8.43;7.63;;;;;;;;;;5070858;28;20218;-81
2021/07/03 02:10:16;;;;;;;7.07;6.23;;;;;;;;;;5071940;28;20173;-81
2021/07/03 02:12:42;;;;;;;7.13;6.43;;;;;;;;;;5070772;28;20173;-81
2021/07/03 02:15:09;;;;;;;8.17;7.17;;;;;;;;;;5069623;28;20256;-81
2021/07/03 02:17:35;;;;;;;7.47;6.00;;;;;;;;;;5071674;28;21070;-82
2021/07/03 02:20:01;;;;;;;7.57;6.80;;;;;;;;;;5070027;28;20176;-81
2021/07/03 02:22:27;;;;;;;7.03;6.10;;;;;;;;;;5070443;28;20176;-81
2021/07/03 02:24:53;;;;;;;8.17;6.50;;;;;;;;;;5054358;28;20546;-81
2021/07/03 02:27:19;;;;;;;7.13;6.43;;;;;;;;;;5061471;28;20176;-81
2021/07/03 02:29:45;;;;;;;6.90;6.23;;;;;;;;;;5070009;28;20191;-81
2021/07/03 02:32:11;;;;;;;7.53;6.83;;;;;;;;;;5070134;28;20377;-81
2021/07/03 02:34:37;;;;;;;6.20;5.60;;;;;;;;;;5070229;28;20208;-81
2021/07/03 02:37:04;;;;;;;6.73;6.17;;;;;;;;;;5069905;28;20238;-81
2021/07/03 02:39:30;;;;;;;7.00;6.33;;;;;;;;;;5070115;28;20177;-81
2021/07/03 02:41:56;;;;;;;7.27;6.67;;;;;;;;;;5071106;28;20227;-81
2021/07/03 02:44:22;;;;;;;6.80;6.17;;;;;;;;;;5064379;28;20164;-81
2021/07/03 02:46:48;;;;;;;10.03;6.47;;;;;;;;;;5069612;28;20177;-81
2021/07/03 02:49:14;;;;;;;6.90;6.30;;;;;;;;;;5069703;28;20168;-81
2021/07/03 02:51:40;;;;;;;8.90;7.10;;;;;;;;;;5071166;28;20238;-82
2021/07/03 02:54:06;;;;;;;7.90;6.33;;;;;;;;;;5071010;28;20185;-81
2021/07/03 02:56:32;;;;;;;6.53;5.93;;;;;;;;;;5069670;28;20183;-81
2021/07/03 02:58:58;;;;;;;7.73;7.03;;;;;;;;;;5069770;28;20242;-81
2021/07/03 03:01:24;;;;;;;7.37;6.57;;;;;;;;;;5069422;28;20239;-81
2021/07/03 03:03:50;;;;;;;8.13;6.63;;;;;;;;;;5070857;28;21058;-81
2021/07/03 03:06:16;;;;;;;7.23;6.53;;;;;;;;;;5069540;28;20193;-81
2021/07/03 03:08:43;;;;;;;7.37;6.50;;;;;;;;;;5069341;28;20585;-81
2021/07/03 03:11:09;;;;;;;6.93;6.23;;;;;;;;;;5069567;28;20650;-81
2021/07/03 03:13:35;;;;;;;6.93;6.23;;;;;;;;;;5059553;28;20192;-81
2021/07/03 03:16:01;;;;;;;7.27;6.57;;;;;;;;;;5069003;28;20192;-81
2021/07/03 03:18:27;;;;;;;7.90;7.10;;;;;;;;;;5068732;28;20185;-81
2021/07/03 03:20:53;;;;;;;6.80;6.10;;;;;;;;;;5068870;28;20218;-81
2021/07/03 03:23:19;;;;;;;8.67;6.53;;;;;;;;;;5069408;28;20573;-81
2021/07/03 03:25:45;;;;;;;8.00;7.20;;;;;;;;;;5069164;28;20176;-82
2021/07/03 03:28:11;;;;;;;7.63;6.83;;;;;;;;;;5070509;28;20169;-81
2021/07/03 03:30:37;;;;;;;7.30;6.60;;;;;;;;;;5069204;28;20180;-81
2021/07/03 03:33:04;;;;;;;7.53;6.73;;;;;;;;;;5070797;28;20176;-81
2021/07/03 03:35:30;;;;;;;8.57;7.40;;;;;;;;;;5068321;28;20222;-81
2021/07/03 03:37:56;;;;;;;9.17;6.80;;;;;;;;;;5070736;28;20184;-81
2021/07/03 03:40:22;;;;;;;7.30;6.60;;;;;;;;;;5069331;28;20207;-81
2021/07/03 03:42:49;;;;;;;6.63;5.90;;;;;;;;;;5069373;28;20177;-81
2021/07/03 03:45:15;;;;;;;9.30;7.07;;;;;;;;;;5068575;28;20182;-81
2021/07/03 03:47:41;;;;;;;8.10;6.93;;;;;;;;;;5069370;28;20243;-81
2021/07/03 03:50:07;;;;;;;7.87;7.07;;;;;;;;;;5068223;28;20661;-81
2021/07/03 03:52:34;;;;;;;7.90;7.10;;;;;;;;;;5069434;28;20665;-81
2021/07/03 03:55:00;;;;;;;7.60;6.80;;;;;;;;;;5069222;28;20172;-81
2021/07/03 03:57:30;;;;;;;7.33;6.63;;;;;;;;;;5070665;28;20272;-81
2021/07/03 03:59:57;;;;;;;7.37;6.57;;;;;;;;;;5068592;28;20260;-82
2021/07/03 04:02:23;;;;;;;6.77;6.17;;;;;;;;;;5068385;28;20204;-82
2021/07/03 04:04:52;;;;;;;7.67;6.97;;;;;;;;;;5068015;28;20173;-81
2021/07/03 04:07:19;;;;;;;6.70;6.10;;;;;;;;;;5070429;28;20717;-81
2021/07/03 04:09:45;;;;;;;7.03;6.43;;;;;;;;;;5070010;28;20177;-81
2021/07/03 04:12:11;;;;;;;7.77;6.80;;;;;;;;;;5068620;28;20173;-81
2021/07/03 04:14:37;;;;;;;6.80;6.10;;;;;;;;;;5068288;28;20736;-81
2021/07/03 04:17:04;;;;;;;7.07;6.27;;;;;;;;;;5069240;28;20188;-81
2021/07/03 04:19:30;;;;;;;7.10;6.40;;;;;;;;;;5070291;28;20184;-81
2021/07/03 04:21:56;;;;;;;7.17;6.47;;;;;;;;;;5069208;28;20651;-81
2021/07/03 04:24:22;;;;;;;8.35;7.55;;;;;;;;;;5067597;28;20853;-81
2021/07/03 04:26:48;;;;;;;8.00;7.20;;;;;;;;;;5069256;28;20168;-81
2021/07/03 04:29:14;;;;;;;8.37;6.43;;;;;;;;;;5068532;28;20177;-81
2021/07/03 04:31:41;;;;;;;6.77;6.00;;;;;;;;;;5069358;28;20267;-81
2021/07/03 04:34:07;;;;;;;7.17;6.47;;;;;;;;;;5068371;28;20189;-81
2021/07/03 04:36:33;;;;;;;8.60;7.80;;;;;;;;;;5066795;28;20216;-81
2021/07/03 04:38:59;;;;;;;9.67;6.83;;;;;;;;;;5070130;28;20184;-81
2021/07/03 04:41:25;;;;;;;9.57;6.73;;;;;;;;;;5072294;28;20208;-81
2021/07/03 04:43:51;;;;;;;7.47;6.43;;;;;;;;;;5072260;28;20229;-81
2021/07/03 04:46:17;;;;;;;7.40;6.50;;;;;;;;;;5073579;28;20533;-80
2021/07/03 04:48:43;;;;;;;8.23;6.63;;;;;;;;;;5071846;28;20180;-81
2021/07/03 04:51:09;;;;;;;7.00;6.30;;;;;;;;;;5068875;28;20187;-80
2021/07/03 04:53:35;;;;;;;6.67;6.03;;;;;;;;;;5071988;28;20222;-81
2021/07/03 04:56:01;;;;;;;8.03;6.73;;;;;;;;;;5071823;28;20282;-80
2021/07/03 04:58:27;;;;;;;7.57;6.87;;;;;;;;;;5071788;28;20544;-80
2021/07/03 05:00:53;;;;;;;8.63;6.80;;;;;;;;;;5070596;28;20200;-80
2021/07/03 05:03:19;;;;;;;7.70;6.47;;;;;;;;;;5072227;28;20176;-80
2021/07/03 05:05:45;;;;;;;8.97;7.00;;;;;;;;;;5072686;28;20182;-81
2021/07/03 05:08:11;;;;;;;7.00;6.27;;;;;;;;;;5072134;28;20192;-81
2021/07/03 05:10:37;;;;;;;7.47;6.77;;;;;;;;;;5072900;28;20191;-81
2021/07/03 05:13:03;;;;;;;7.10;6.40;;;;;;;;;;5073517;28;20179;-81
2021/07/03 05:15:29;;;;;;;10.93;7.10;;;;;;;;;;5070782;28;20184;-80
2021/07/03 05:17:56;;;;;;;6.90;6.20;;;;;;;;;;5073394;28;20295;-80
2021/07/03 05:20:22;;;;;;;6.90;6.20;;;;;;;;;;5061930;28;20179;-80
2021/07/03 05:22:48;;;;;;;6.97;6.27;;;;;;;;;;5051883;28;20278;-80
2021/07/03 05:25:15;;;;;;;8.03;6.60;;;;;;;;;;5063679;28;20274;-80
2021/07/03 05:27:41;;;;;;;8.40;7.17;;;;;;;;;;5071553;28;20172;-80
2021/07/03 05:30:07;;;;;;;7.33;6.17;;;;;;;;;;5071223;28;20204;-80
2021/07/03 05:32:33;;;;;;;6.77;5.90;;;;;;;;;;5071379;28;20541;-81
2021/07/03 05:34:59;;;;;;;6.73;6.03;;;;;;;;;;5070646;28;20611;-81
2021/07/03 05:37:25;;;;;;;7.40;6.47;;;;;;;;;;5073094;28;20251;-80
2021/07/03 05:39:51;;;;;;;8.37;6.53;;;;;;;;;;5070751;28;20185;-80
2021/07/03 05:42:17;;;;;;;6.53;5.93;;;;;;;;;;5072670;28;20214;-80
2021/07/03 05:44:43;;;;;;;6.90;6.13;;;;;;;;;;5072272;28;20765;-80
2021/07/03 05:47:09;;;;;;;6.73;6.10;;;;;;;;;;5070768;28;20172;-81
2021/07/03 05:49:35;;;;;;;6.47;5.87;;;;;;;;;;5068769;28;20172;-81
2021/07/03 05:52:01;;;;;;;7.07;6.37;;;;;;;;;;5071937;28;20200;-80
2021/07/03 05:54:31;;;;;;;6.63;5.60;;;;;;;;;;5070587;28;20242;-81
2021/07/03 05:56:57;;;;;;;6.85;6.25;;;;;;;;;;5070341;28;20433;-80
2021/07/03 05:59:23;;;;;;;6.87;5.97;;;;;;;;;;5070270;28;20172;-80
2021/07/03 06:01:49;;;;;;;7.17;6.47;;;;;;;;;;5071992;28;20203;-80
2021/07/03 06:04:15;;;;;;;6.83;6.13;;;;;;;;;;5069966;28;20576;-80
2021/07/03 06:06:41;;;;;;;7.10;6.40;;;;;;;;;;5072155;28;20185;-81
2021/07/03 06:09:07;;;;;;;7.23;6.13;;;;;;;;;;5067985;28;20192;-80
2021/07/03 06:11:33;;;;;;;7.30;6.57;;;;;;;;;;5070313;28;20191;-80
2021/07/03 06:14:00;;;;;;;6.77;6.07;;;;;;;;;;5070043;28;20184;-80
2021/07/03 06:16:26;;;;;;;6.90;6.20;;;;;;;;;;5070020;28;20275;-80
2021/07/03 06:18:53;;;;;;;8.13;6.40;;;;;;;;;;5069706;28;20186;-81
2021/07/03 06:21:19;;;;;;;7.47;6.77;;;;;;;;;;5071067;28;20287;-81
2021/07/03 06:23:45;;;;;;;9.37;6.33;;;;;;;;;;5070367;28;20177;-81
2021/07/03 06:26:11;;;;;;;7.57;6.87;;;;;;;;;;5071425;28;20203;-81
2021/07/03 06:28:37;;;;;;;6.67;6.07;;;;;;;;;;5066483;28;20193;-80
2021/07/03 06:31:03;;;;;;;7.03;6.33;;;;;;;;;;5065674;28;20203;-81
2021/07/03 06:33:29;;;;;;;6.90;6.20;;;;;;;;;;5070968;28;20218;-80
2021/07/03 06:35:55;;;;;;;7.10;6.40;;;;;;;;;;5066240;28;20221;-81
2021/07/03 06:38:21;;;;;;;7.03;6.33;;;;;;;;;;5050067;28;20256;-81
2021/07/03 06:40:47;;;;;;;8.67;6.57;;;;;;;;;;5066561;28;20211;-81
2021/07/03 06:43:13;;;;;;;7.83;7.03;;;;;;;;;;5069949;28;20733;-81
2021/07/03 06:45:39;;;;;;;8.87;6.43;;;;;;;;;;5086804;28;20172;-81
2021/07/03 06:48:05;;;;;;;6.63;6.03;;;;;;;;;;5086632;28;20187;-81
2021/07/03 06:50:31;;;;;;;7.17;6.27;;;;;;;;;;5069463;28;20616;-81
2021/07/03 06:52:58;;;;;;;6.93;6.33;;;;;;;;;;5069625;28;20263;-81
2021/07/03 06:55:24;;;;;;;7.57;6.20;;;;;;;;;;5069594;28;20180;-81
2021/07/03 06:57:50;;;;;;;7.77;6.67;;;;;;;;;;5069765;28;20189;-81
2021/07/03 07:00:16;;;;;;;7.30;6.60;;;;;;;;;;5069295;28;20184;-81
2021/07/03 07:02:42;;;;;;;7.43;6.60;;;;;;;;;;5068808;28;20402;-81
2021/07/03 07:05:08;;;;;;;11.03;7.23;;;;;;;;;;5069229;28;20183;-81
2021/07/03 07:07:35;;;;;;;7.03;6.33;;;;;;;;;;5069430;28;20523;-81
2021/07/03 07:10:02;;;;;;;7.13;6.13;;;;;;;;;;5069200;28;20214;-81
2021/07/03 07:12:28;;;;;;;7.37;6.67;;;;;;;;;;5070102;28;20173;-81
2021/07/03 07:14:59;;;;;;;6.63;6.03;;;;;;;;;;5068877;28;20195;-81
2021/07/03 07:17:25;;;;;;;8.10;7.23;;;;;;;;;;5069887;28;20547;-81
2021/07/03 07:19:51;;;;;;;7.77;5.80;;;;;;;;;;5065952;28;20188;-81
2021/07/03 07:22:17;;;;;;;7.33;6.73;;;;;;;;;;5068582;28;20250;-80
2021/07/03 07:24:43;;;;;;;8.73;7.20;;;;;;;;;;5068948;28;20188;-81
2021/07/03 07:27:09;;;;;;;6.97;6.30;;;;;;;;;;5069053;28;20312;-80
2021/07/03 07:29:35;;;;;;;8.00;7.20;;;;;;;;;;5070697;28;20540;-80
2021/07/03 07:32:01;;;;;;;7.70;6.83;;;;;;;;;;5069437;28;20253;-81
2021/07/03 07:34:28;;;;;;;6.60;6.00;;;;;;;;;;5064630;28;20634;-81
2021/07/03 07:36:54;;;;;;;7.47;6.30;;;;;;;;;;5068888;28;20707;-80
2021/07/03 07:39:20;;;;;;;7.30;6.63;;;;;;;;;;5069389;28;20640;-81
2021/07/03 07:41:46;;;;;;;9.13;6.93;;;;;;;;;;5069018;28;20378;-81
2021/07/03 07:44:12;;;;;;;7.37;6.67;;;;;;;;;;5068191;28;20180;-83
2021/07/03 07:46:38;;;;;;;8.00;7.10;;;;;;;;;;5073956;28;20200;-84
2021/07/03 07:49:05;;;;;;;6.97;6.17;;;;;;;;;;5068551;28;20299;-84
2021/07/03 07:51:31;;;;;;;7.67;6.87;;;;;;;;;;5069821;28;20181;-83
2021/07/03 07:53:58;;;;;;;7.80;6.87;;;;;;;;;;5061562;28;20316;-84
2021/07/03 07:56:24;;;;;;;8.37;6.43;;;;;;;;;;5056185;28;20632;-84
2021/07/03 07:58:50;;;;;;;6.80;6.20;;;;;;;;;;5072106;28;20198;-83
2021/07/03 08:01:16;;;;;;;7.97;7.00;;;;;;;;;;5066231;28;20208;-84
2021/07/03 08:03:42;;;;;;;8.67;7.87;;;;;;;;;;5064676;28;20271;-83
2021/07/03 08:06:09;;;;;;;8.13;7.37;;;;;;;;;;5063341;28;20234;-83
2021/07/03 08:08:35;;;;;;;8.53;6.73;;;;;;;;;;5070125;28;20185;-83
2021/07/03 08:11:01;;;;;;;7.83;7.03;;;;;;;;;;5069980;28;20271;-83
2021/07/03 08:13:27;;;;;;;15.63;6.87;;;;;;;;;;5072849;28;20181;-83
2021/07/03 08:15:53;;;;;;;7.60;6.93;;;;;;;;;;5074618;28;20195;-84
2021/07/03 08:18:20;;;;;;;6.87;6.27;;;;;;;;;;5075000;28;20183;-83
2021/07/03 08:20:46;;;;;;;8.33;7.57;;;;;;;;;;5068537;28;20671;-83
2021/07/03 08:23:12;;;;;;;8.33;6.77;;;;;;;;;;5076447;28;20176;-83
2021/07/03 08:25:39;;;;;;;8.10;7.40;;;;;;;;;;5073723;28;20185;-83
2021/07/03 08:28:05;;;;;;;8.27;6.53;;;;;;;;;;5075245;28;20615;-83
2021/07/03 08:30:32;;;;;;;7.27;6.20;;;;;;;;;;5070484;28;20184;-83
2021/07/03 08:32:58;;;;;;;8.10;7.30;;;;;;;;;;5074364;28;20263;-82
2021/07/03 08:35:24;;;;;;;7.70;6.90;;;;;;;;;;5072408;28;20220;-79
2021/07/03 08:37:50;;;;;;;13.60;7.40;;;;;;;;;;5072490;28;20267;-79
2021/07/03 08:40:16;;;;;;;8.20;7.40;;;;;;;;;;5069509;28;20425;-79
2021/07/03 08:42:43;;;;;;;16.13;8.47;;;;;;;;;;5072889;28;20619;-80
2021/07/03 08:45:09;;;;;;;18.50;7.13;;;;;;;;;;5071186;28;20176;-78
2021/07/03 08:47:38;;;;;;;8.73;6.50;;;;;;;;;;5072816;28;20286;-79
2021/07/03 08:50:04;;;;;;;9.50;7.33;;;;;;;;;;5072502;28;20172;-80
2021/07/03 08:52:30;;;;;;;11.10;6.40;;;;;;;;;;5072163;28;20184;-78
2021/07/03 08:55:02;;;;;;;9.23;6.57;;;;;;;;;;5067383;28;20605;-79
2021/07/03 08:57:31;;;;;;;7.67;6.87;;;;;;;;;;5072397;28;20205;-79
2021/07/03 08:59:57;;;;;;;7.90;6.87;;;;;;;;;;5072561;28;20517;-80
2021/07/03 09:02:33;;;;;;;8.03;6.60;;;;;;;;;;5064899;28;20209;-78
2021/07/03 09:05:00;;;;;;;5.97;5.30;;;;;;;;;;5070829;28;20199;-78
2021/07/03 09:07:32;;;;;;;9.47;6.97;;;;;;;;;;5071248;28;20188;-79
2021/07/03 09:09:58;;;;;;;8.40;6.33;;;;;;;;;;5070274;28;20279;-79
2021/07/03 09:12:31;;;;;;;6.97;6.37;;;;;;;;;;5073457;28;20179;-80
2021/07/03 09:15:08;;;;;;;6.67;5.90;;;;;;;;;;5072112;28;20191;-79
2021/07/03 09:17:40;;;;;;;7.33;6.60;;;;;;;;;;5072253;28;20172;-79
2021/07/03 09:20:07;;;;;;;8.50;6.60;;;;;;;;;;5060415;28;20185;-80
2021/07/03 09:22:34;;;;;;;7.43;6.73;;;;;;;;;;5071433;28;20448;-78
2021/07/03 09:25:00;;;;;;;7.10;6.50;;;;;;;;;;5070989;28;20267;-79
2021/07/03 09:27:26;;;;;;;8.17;6.70;;;;;;;;;;5058818;28;20185;-80
2021/07/03 09:29:52;;;;;;;6.97;6.27;;;;;;;;;;5060364;28;20254;-79
2021/07/03 09:32:18;;;;;;;8.03;6.60;;;;;;;;;;5071574;28;20169;-80
2021/07/03 09:34:44;;;;;;;10.17;6.83;;;;;;;;;;5052648;28;20185;-79
2021/07/03 09:37:12;;;;;;;16.37;7.67;;;;;;;;;;5062967;28;20216;-79
2021/07/03 09:39:38;;;;;;;6.90;5.73;;;;;;;;;;5066323;28;20288;-78
2021/07/03 09:42:13;;;;;;;6.78;5.63;;;;;;;;;;5068945;28;20908;-79
2021/07/03 09:44:39;;;;;;;5.80;5.20;;;;;;;;;;5070950;28;20179;-78
2021/07/03 09:47:05;;;;;;;5.97;5.47;;;;;;;;;;5072116;28;20192;-79
2021/07/03 09:49:31;;;;;;;6.07;5.57;;;;;;;;;;5069412;28;20189;-79
2021/07/03 09:51:59;;;;;;;6.77;6.13;;;;;;;;;;5072189;28;20187;-79
2021/07/03 09:54:26;;;;;;;6.90;5.70;;;;;;;;;;5070438;28;20168;-79
2021/07/03 09:56:58;;;;;;;11.07;6.10;;;;;;;;;;5071981;28;20211;-78
2021/07/03 09:59:35;;;;;;;6.57;5.97;;;;;;;;;;5069639;28;20183;-79
2021/07/03 10:02:01;;;;;;;6.77;6.07;;;;;;;;;;5070759;28;20254;-79
2021/07/03 10:04:27;;;;;;;6.60;6.00;;;;;;;;;;5069933;28;20196;-79
2021/07/03 10:07:12;;;;;;;7.63;5.53;;;;;;;;;;5070731;28;20254;-78
2021/07/03 10:09:38;;;;;;;6.07;5.50;;;;;;;;;;5070112;28;20176;-80
2021/07/03 10:12:05;;;;;;;5.93;5.43;;;;;;;;;;5066362;28;20199;-80
2021/07/03 10:14:43;;;;;;;9.30;8.07;;;;;;;;;;5063938;28;20497;-80
2021/07/03 10:17:11;;;;;;;9.93;7.00;;;;;;;;;;5071052;28;20188;-82
2021/07/03 10:19:38;;;;;;;10.13;6.27;;;;;;;;;;5070547;28;20512;-81
2021/07/03 10:22:11;;;;;;;6.57;5.90;;;;;;;;;;5071757;28;20204;-81
2021/07/03 10:24:42;;;;;;;6.20;5.53;;;;;;;;;;5071170;28;20185;-80
2021/07/03 10:27:15;;;;;;;6.53;5.93;;;;;;;;;;5066446;28;20704;-81
2021/07/03 10:29:42;;;;;;;6.60;5.87;;;;;;;;;;5072984;28;20255;-81
2021/07/03 10:32:18;;;;;;;7.07;5.67;;;;;;;;;;5069917;28;20216;-79
2021/07/03 10:34:44;;;;;;;9.63;6.30;;;;;;;;;;5068147;28;20253;-80
2021/07/03 10:37:11;;;;;;;7.83;6.17;;;;;;;;;;5064847;28;20233;-80
2021/07/03 10:39:37;;;;;;;6.73;6.13;;;;;;;;;;5069956;28;20193;-79
2021/07/03 10:42:03;;;;;;;6.87;6.10;;;;;;;;;;5070546;28;20631;-81
2021/07/03 10:44:39;;;;;;;8.20;6.07;;;;;;;;;;5070630;28;20751;-83
2021/07/03 10:47:10;;;;;;;6.93;5.63;;;;;;;;;;5055964;28;20200;-78
2021/07/03 10:49:38;;;;;;;6.43;5.13;;;;;;;;;;5061543;28;20211;-78
2021/07/03 10:52:13;;;;;;;6.10;5.50;;;;;;;;;;5070122;28;20188;-79
2021/07/03 10:54:39;;;;;;;4.90;4.50;;;;;;;;;;5069650;28;20216;-79
2021/07/03 10:57:13;;;;;;;5.03;4.53;;;;;;;;;;5069468;28;20247;-79
2021/07/03 10:59:40;;;;;;;5.87;4.47;;;;;;;;;;5071062;28;20257;-80
2021/07/03 11:02:07;;;;;;;6.40;5.60;;;;;;;;;;5069401;28;20438;-80
2021/07/03 11:04:53;;;;;;;5.97;5.37;;;;;;;;;;5071467;28;20176;-81
2021/07/03 11:07:21;;;;;;;7.50;4.80;;;;;;;;;;5063111;28;20563;-80
2021/07/03 11:09:50;;;;;;;6.50;5.07;;;;;;;;;;5070636;28;20179;-82
2021/07/03 11:12:17;;;;;;;6.97;5.13;;;;;;;;;;5070206;28;20270;-80
2021/07/03 11:14:53;;;;;;;5.77;5.23;;;;;;;;;;5071055;28;20178;-80
2021/07/03 11:17:20;;;;;;;6.20;5.53;;;;;;;;;;5066974;28;20175;-80
2021/07/03 11:19:49;;;;;;;5.50;5.00;;;;;;;;;;5069596;28;20251;-80
2021/07/03 11:22:16;;;;;;;7.90;5.97;;;;;;;;;;5070828;28;20716;-80
2021/07/03 11:24:43;;;;;;;6.80;5.90;;;;;;;;;;5071964;28;20240;-81
2021/07/03 11:27:13;;;;;;;7.13;6.33;;;;;;;;;;5070466;28;20205;-81
2021/07/03 11:29:42;;;;;;;7.03;5.93;;;;;;;;;;5070024;28;20168;-81
2021/07/03 11:32:09;;;;;;;8.00;5.97;;;;;;;;;;5055249;28;20193;-80
2021/07/03 11:34:35;;;;;;;6.60;5.90;;;;;;;;;;5054901;28;20247;-83
2021/07/03 11:37:02;;;;;;;6.53;5.87;;;;;;;;;;5068996;28;20299;-82
2021/07/03 11:39:29;;;;;;;8.57;6.40;;;;;;;;;;5069473;28;20182;-80
2021/07/03 11:42:00;;;;;;;8.67;6.10;;;;;;;;;;5069125;28;20212;-82
2021/07/03 11:44:26;;;;;;;11.70;6.47;;;;;;;;;;5070870;28;20506;-81
2021/07/03 11:46:52;;;;;;;6.73;5.93;;;;;;;;;;5070199;28;20179;-80
2021/07/03 11:49:19;;;;;;;7.43;6.73;;;;;;;;;;5074484;28;20199;-81
2021/07/03 11:51:45;;;;;;;7.07;6.37;;;;;;;;;;5074077;28;20609;-83
2021/07/03 11:54:11;;;;;;;6.50;5.80;;;;;;;;;;5061097;28;20182;-80
2021/07/03 11:56:37;;;;;;;8.77;7.60;;;;;;;;;;5090998;28;20200;-80
2021/07/03 11:59:03;;;;;;;305.00;213.83;;;;;;;;;;5072244;28;20182;-80
2021/07/03 12:01:29;;;;;;;168.23;110.00;;;;;;;;;;5075428;28;20210;-80
2021/07/03 12:03:57;;;;;;;73.23;50.87;;;;;;;;;;5074142;28;20310;-81
2021/07/03 12:06:24;;;;;;;26.37;21.90;;;;;;;;;;5074525;28;20281;-85
2021/07/03 12:08:52;;;;;;;18.13;12.70;;;;;;;;;;5074345;28;20180;-83
2021/07/03 12:11:20;;;;;;;15.33;11.00;;;;;;;;;;5075664;28;20685;-81
2021/07/03 12:13:56;;;;;;;16.97;15.13;;;;;;;;;;5076185;28;20176;-81
2021/07/03 12:16:27;;;;;;;15.20;10.37;;;;;;;;;;5074594;28;20280;-80
2021/07/03 12:18:55;;;;;;;13.43;9.87;;;;;;;;;;5073515;28;20180;-81
2021/07/03 12:21:25;;;;;;;56.27;45.43;;;;;;;;;;5073086;28;20287;-82
2021/07/03 12:23:51;;;;;;;35.90;32.30;;;;;;;;;;5074579;28;20172;-80
2021/07/03 12:26:27;;;;;;;51.43;45.83;;;;;;;;;;5073544;28;20196;-80
2021/07/03 12:29:00;;;;;;;29.63;26.47;;;;;;;;;;5059450;28;20249;-83
2021/07/03 12:31:28;;;;;;;22.10;19.87;;;;;;;;;;5075201;28;20187;-83
2021/07/03 12:34:05;;;;;;;12.97;11.63;;;;;;;;;;5074771;28;20183;-81
2021/07/03 12:36:31;;;;;;;14.80;12.47;;;;;;;;;;5074669;28;20211;-81
2021/07/03 12:39:26;;;;;;;11.90;9.53;;;;;;;;;;5074769;28;20184;-81
2021/07/03 12:41:57;;;;;;;11.53;10.40;;;;;;;;;;5041154;28;20284;-81
2021/07/03 12:44:37;;;;;;;8.47;7.63;;;;;;;;;;5073438;28;20176;-81
2021/07/03 12:47:04;;;;;;;10.27;8.00;;;;;;;;;;5074235;28;20168;-81
2021/07/03 12:49:37;;;;;;;8.57;7.70;;;;;;;;;;5073165;28;20179;-82
2021/07/03 12:52:03;;;;;;;7.63;6.93;;;;;;;;;;5075048;28;20264;-80
2021/07/03 12:54:29;;;;;;;9.20;7.70;;;;;;;;;;5073474;28;20630;-81
2021/07/03 12:56:56;;;;;;;7.53;6.83;;;;;;;;;;5065343;28;20176;-81
2021/07/03 12:59:36;;;;;;;8.00;7.20;;;;;;;;;;5072758;28;20181;-80
2021/07/03 13:02:06;;;;;;;8.13;6.73;;;;;;;;;;5073996;28;20682;-80
2021/07/03 13:04:32;;;;;;;10.45;6.97;;;;;;;;;;5070868;28;20878;-81
2021/07/03 13:06:58;;;;;;;8.53;7.00;;;;;;;;;;5063667;28;20201;-80
2021/07/03 13:09:24;;;;;;;7.95;7.15;;;;;;;;;;5072276;28;20173;-80
2021/07/03 13:11:54;;;;;;;6.70;6.10;;;;;;;;;;5072322;28;20628;-81
2021/07/03 13:14:22;;;;;;;6.00;5.50;;;;;;;;;;5073466;28;20263;-82
2021/07/03 13:16:49;;;;;;;7.30;5.87;;;;;;;;;;5070438;28;20189;-83
2021/07/03 13:19:15;;;;;;;8.85;8.05;;;;;;;;;;5069613;28;20185;-81
2021/07/03 13:21:41;;;;;;;29.17;26.23;;;;;;;;;;5072745;28;20192;-82
2021/07/03 13:24:07;;;;;;;47.17;40.67;;;;;;;;;;5071935;28;20181;-85
2021/07/03 13:26:33;;;;;;;27.07;20.70;;;;;;;;;;5072534;28;20186;-83
2021/07/03 13:29:00;;;;;;;20.50;16.47;;;;;;;;;;5073351;28;20162;-81
2021/07/03 13:31:26;;;;;;;14.00;11.60;;;;;;;;;;5073133;28;20195;-82
2021/07/03 13:33:52;;;;;;;16.30;12.93;;;;;;;;;;5071573;28;20557;-82
2021/07/03 13:36:18;;;;;;;11.20;9.35;;;;;;;;;;5061679;28;20354;-82
2021/07/03 13:38:44;;;;;;;9.60;8.07;;;;;;;;;;5063475;28;20195;-82
2021/07/03 13:41:10;;;;;;;8.17;7.23;;;;;;;;;;5064566;28;20200;-81
2021/07/03 13:43:37;;;;;;;7.25;6.55;;;;;;;;;;5061986;28;20227;-82
2021/07/03 13:46:03;;;;;;;7.57;6.33;;;;;;;;;;5071165;28;20524;-82
2021/07/03 13:48:30;;;;;;;5.60;5.10;;;;;;;;;;5069027;28;20188;-83
2021/07/03 13:50:56;;;;;;;9.10;5.77;;;;;;;;;;5068852;28;20183;-81
2021/07/03 13:53:22;;;;;;;5.47;4.97;;;;;;;;;;5069885;28;20181;-81
2021/07/03 13:55:50;;;;;;;7.43;5.70;;;;;;;;;;5070007;28;20374;-83
2021/07/03 13:58:16;;;;;;;5.40;4.70;;;;;;;;;;5070318;28;20347;-82
2021/07/03 14:00:43;;;;;;;9.00;5.33;;;;;;;;;;5069967;28;20195;-81
2021/07/03 14:03:12;;;;;;;5.03;4.23;;;;;;;;;;5070854;28;20181;-81
2021/07/03 14:05:39;;;;;;;5.37;4.87;;;;;;;;;;5066244;28;20624;-81
2021/07/03 14:08:05;;;;;;;5.37;4.97;;;;;;;;;;5063773;28;20199;-80
2021/07/03 14:10:31;;;;;;;5.07;4.63;;;;;;;;;;5069403;28;20248;-81
2021/07/03 14:12:57;;;;;;;6.77;4.10;;;;;;;;;;5069993;28;20269;-81
2021/07/03 14:15:23;;;;;;;4.63;4.23;;;;;;;;;;5071214;28;20179;-81
2021/07/03 14:17:49;;;;;;;6.07;4.57;;;;;;;;;;5072788;28;20185;-80
2021/07/03 14:20:16;;;;;;;4.20;3.90;;;;;;;;;;5068190;28;20188;-80
2021/07/03 14:22:42;;;;;;;4.40;4.00;;;;;;;;;;5070462;28;20257;-80
2021/07/03 14:25:08;;;;;;;4.83;4.43;;;;;;;;;;5069629;28;20194;-81
2021/07/03 14:27:35;;;;;;;4.43;4.03;;;;;;;;;;5065992;28;20200;-80
2021/07/03 14:30:01;;;;;;;5.77;4.70;;;;;;;;;;5059243;28;20181;-81
2021/07/03 14:32:27;;;;;;;6.00;5.03;;;;;;;;;;5064649;28;20426;-80
2021/07/03 14:34:53;;;;;;;6.40;4.13;;;;;;;;;;5065758;28;20283;-82
2021/07/03 14:37:19;;;;;;;4.53;4.13;;;;;;;;;;5088834;28;20293;-82
2021/07/03 14:39:46;;;;;;;4.80;4.40;;;;;;;;;;5072860;28;20194;-81